createdAt,value
2023-09-09T00:02:11.502Z,52.95
2023-09-09T00:04:39.921Z,52.38
2023-09-09T00:07:07.830Z,50.17
2023-09-09T00:09:35.657Z,48.20
2023-09-09T00:12:03.928Z,52.78
2023-09-09T00:14:33.108Z,50.15
2023-09-09T00:17:00.938Z,55.72
2023-09-09T00:19:29.530Z,61.25
2023-09-09T00:21:57.409Z,65.65
2023-09-09T00:24:25.212Z,68.50
2023-09-09T00:26:53.119Z,68.30
2023-09-09T00:29:20.877Z,68.00
2023-09-09T00:31:51.092Z,71.28
2023-09-09T00:34:19.406Z,67.57
2023-09-09T00:36:47.178Z,69.40
2023-09-09T00:39:15.130Z,70.97
2023-09-09T00:41:42.931Z,74.57
2023-09-09T00:44:10.712Z,70.00
2023-09-09T00:46:38.874Z,70.40
2023-09-09T00:49:08.093Z,74.03
2023-09-09T00:51:38.653Z,75.63
2023-09-09T00:54:06.986Z,75.18
2023-09-09T00:56:35.422Z,72.32
2023-09-09T00:59:03.270Z,75.13
2023-09-09T01:01:32.454Z,79.82
2023-09-09T01:04:01.014Z,78.55
2023-09-09T01:06:30.254Z,76.35
2023-09-09T01:08:58.050Z,78.07
2023-09-09T01:11:25.796Z,78.93
2023-09-09T01:13:53.608Z,77.07
2023-09-09T01:16:21.550Z,75.30
2023-09-09T01:18:49.363Z,78.50
2023-09-09T01:21:20.564Z,76.50
2023-09-09T01:23:49.928Z,81.72
2023-09-09T01:26:17.701Z,82.78
2023-09-09T01:28:45.532Z,81.78
2023-09-09T01:31:14.160Z,82.18
2023-09-09T01:33:42.061Z,81.13
2023-09-09T01:36:10.266Z,84.78
2023-09-09T01:38:38.022Z,86.20
2023-09-09T01:41:07.179Z,93.03
2023-09-09T01:43:35.225Z,87.15
2023-09-09T01:46:03.437Z,84.90
2023-09-09T01:48:31.334Z,90.60
2023-09-09T01:50:59.163Z,94.93
2023-09-09T01:53:26.939Z,93.50
2023-09-09T01:55:57.319Z,92.85
2023-09-09T01:58:26.544Z,95.50
2023-09-09T02:00:54.418Z,99.50
2023-09-09T02:03:23.109Z,93.57
2023-09-09T02:05:51.139Z,87.30
2023-09-09T02:08:19.414Z,83.32
2023-09-09T02:10:51.204Z,76.82
2023-09-09T02:13:19.108Z,74.95
2023-09-09T02:15:48.272Z,76.38
2023-09-09T02:18:16.073Z,74.90
2023-09-09T02:20:43.857Z,76.55
2023-09-09T02:23:11.781Z,73.70
2023-09-09T02:25:39.668Z,73.68
2023-09-09T02:28:07.537Z,77.20
2023-09-09T02:30:35.298Z,78.40
2023-09-09T02:33:04.798Z,78.97
2023-09-09T02:35:32.631Z,77.50
2023-09-09T02:38:00.460Z,76.13
2023-09-09T02:40:28.250Z,77.57
2023-09-09T02:42:56.016Z,75.13
2023-09-09T02:45:23.955Z,74.28
2023-09-09T02:47:51.760Z,72.55
2023-09-09T02:50:21.012Z,68.75
2023-09-09T02:52:50.234Z,69.63
2023-09-09T02:55:18.160Z,69.43
2023-09-09T02:57:49.059Z,78.00
2023-09-09T03:00:17.433Z,69.95
2023-09-09T03:02:45.607Z,68.80
2023-09-09T03:05:13.676Z,66.75
2023-09-09T03:07:45.730Z,65.45
2023-09-09T03:10:13.580Z,63.63
2023-09-09T03:12:41.507Z,63.33
2023-09-09T03:15:10.711Z,61.95
2023-09-09T03:17:38.519Z,60.90
2023-09-09T03:20:08.740Z,61.85
2023-09-09T03:22:36.543Z,68.60
2023-09-09T03:25:07.261Z,71.18
2023-09-09T03:27:35.032Z,70.40
2023-09-09T03:30:04.074Z,69.50
2023-09-09T03:32:32.747Z,67.13
2023-09-09T03:35:00.789Z,69.97
2023-09-09T03:37:28.566Z,69.68
2023-09-09T03:39:56.523Z,69.60
2023-09-09T03:42:25.706Z,72.63
2023-09-09T03:44:54.328Z,70.32
2023-09-09T03:47:22.658Z,69.13
2023-09-09T03:49:54.039Z,67.93
2023-09-09T03:52:22.734Z,65.60
2023-09-09T03:54:50.500Z,62.97
2023-09-09T03:57:18.491Z,62.92
2023-09-09T03:59:49.909Z,61.92
2023-09-09T04:02:17.702Z,63.78
2023-09-09T04:04:45.433Z,67.07
2023-09-09T04:07:13.175Z,67.22
2023-09-09T04:09:42.353Z,60.83
2023-09-09T04:12:11.126Z,62.83
2023-09-09T04:14:40.574Z,64.38
2023-09-09T04:17:09.865Z,68.75
2023-09-09T04:19:37.791Z,73.80
2023-09-09T04:22:05.865Z,67.25
2023-09-09T04:24:33.642Z,66.07
2023-09-09T04:27:01.502Z,66.68
2023-09-09T04:29:29.266Z,62.03
2023-09-09T04:31:57.597Z,65.45
2023-09-09T04:34:26.776Z,62.85
2023-09-09T04:36:54.649Z,61.28
2023-09-09T04:39:22.429Z,66.07
2023-09-09T04:41:50.253Z,60.58
2023-09-09T04:44:18.056Z,64.30
2023-09-09T04:46:45.856Z,64.32
2023-09-09T04:49:13.818Z,67.97
2023-09-09T04:51:43.001Z,67.32
2023-09-09T04:54:10.834Z,69.63
2023-09-09T04:56:38.605Z,68.10
2023-09-09T04:59:06.446Z,63.70
2023-09-09T05:01:34.447Z,65.43
2023-09-09T05:04:02.613Z,64.50
2023-09-09T05:06:30.373Z,63.88
2023-09-09T05:08:59.574Z,65.53
2023-09-09T05:11:27.326Z,67.68
2023-09-09T05:13:55.106Z,75.10
2023-09-09T05:16:22.867Z,67.43
2023-09-09T05:18:50.685Z,68.72
2023-09-09T05:21:18.461Z,60.65
2023-09-09T05:23:46.262Z,61.63
2023-09-09T05:26:15.359Z,64.93
2023-09-09T05:28:43.151Z,66.93
2023-09-09T05:31:10.906Z,64.50
2023-09-09T05:33:39.079Z,62.95
2023-09-09T05:36:07.578Z,60.10
2023-09-09T05:38:36.611Z,59.20
2023-09-09T05:41:04.677Z,59.25
2023-09-09T05:43:33.878Z,64.18
2023-09-09T05:46:02.147Z,66.20
2023-09-09T05:48:30.137Z,66.53
2023-09-09T05:50:57.981Z,63.72
2023-09-09T05:53:25.804Z,76.78
2023-09-09T05:55:53.710Z,94.50
2023-09-09T05:58:21.554Z,74.38
2023-09-09T06:00:50.668Z,84.57
2023-09-09T06:03:18.490Z,79.75
2023-09-09T06:05:46.366Z,78.75
2023-09-09T06:08:14.473Z,81.82
2023-09-09T06:10:42.343Z,79.68
2023-09-09T06:13:10.161Z,74.90
2023-09-09T06:15:37.944Z,75.20
2023-09-09T06:18:07.478Z,72.40
2023-09-09T06:20:35.336Z,64.95
2023-09-09T06:23:03.151Z,70.28
2023-09-09T06:25:31.108Z,68.68
2023-09-09T06:27:58.910Z,65.72
2023-09-09T06:30:26.679Z,69.18
2023-09-09T06:32:55.806Z,67.63
2023-09-09T06:35:25.094Z,61.92
2023-09-09T06:37:52.847Z,47.72
2023-09-09T06:40:20.603Z,43.92
2023-09-09T06:42:48.443Z,45.22
2023-09-09T06:45:19.072Z,43.13
2023-09-09T06:47:47.618Z,43.72
2023-09-09T06:50:15.506Z,43.58
2023-09-09T06:52:44.723Z,41.47
2023-09-09T06:55:12.564Z,43.33
2023-09-09T06:57:40.402Z,43.08
2023-09-09T07:00:09.502Z,44.00
2023-09-09T07:02:37.561Z,49.88
2023-09-09T07:05:05.855Z,47.72
2023-09-09T07:07:41.984Z,48.03
2023-09-09T07:10:13.337Z,49.95
2023-09-09T07:12:42.921Z,47.80
2023-09-09T07:15:11.214Z,49.08
2023-09-09T07:17:39.464Z,55.60
2023-09-09T07:20:09.604Z,68.57
2023-09-09T07:22:37.449Z,68.22
2023-09-09T07:25:06.385Z,67.40
2023-09-09T07:27:35.644Z,67.45
2023-09-09T07:30:06.022Z,73.53
2023-09-09T07:32:34.313Z,72.97
2023-09-09T07:35:03.734Z,73.13
2023-09-09T07:37:31.615Z,78.70
2023-09-09T07:40:00.434Z,76.85
2023-09-09T07:42:28.736Z,73.18
2023-09-09T07:44:57.855Z,69.55
2023-09-09T07:47:26.165Z,67.03
2023-09-09T07:49:53.944Z,63.22
2023-09-09T07:52:21.762Z,57.10
2023-09-09T07:54:53.304Z,61.55
2023-09-09T07:57:21.080Z,59.72
2023-09-09T07:59:49.525Z,53.42
2023-09-09T08:02:18.711Z,52.95
2023-09-09T08:04:46.808Z,52.72
2023-09-09T08:07:14.797Z,44.00
2023-09-09T08:09:43.056Z,43.55
2023-09-09T08:12:10.945Z,44.55
2023-09-09T08:14:38.789Z,40.67
2023-09-09T08:17:06.654Z,36.72
2023-09-09T08:19:35.903Z,41.78
2023-09-09T08:22:04.114Z,38.25
2023-09-09T08:24:31.944Z,37.70
2023-09-09T08:26:59.805Z,29.92
2023-09-09T08:29:27.610Z,38.40
2023-09-09T08:31:55.491Z,34.53
2023-09-09T08:34:23.350Z,33.35
2023-09-09T08:36:52.464Z,22.95
2023-09-09T08:39:20.859Z,24.08
2023-09-09T08:41:58.157Z,18.42
2023-09-09T08:44:35.979Z,11.88
2023-09-09T08:47:03.951Z,15.23
2023-09-09T08:49:33.119Z,17.17
2023-09-09T08:52:05.611Z,14.98
2023-09-09T08:54:33.987Z,16.57
2023-09-09T08:57:04.337Z,18.73
2023-09-09T08:59:34.056Z,19.58
2023-09-09T09:02:04.028Z,19.42
2023-09-09T09:04:35.028Z,18.48
2023-09-09T09:07:04.222Z,17.73
2023-09-09T09:09:31.962Z,20.70
2023-09-09T09:12:01.218Z,22.00
2023-09-09T09:14:29.329Z,20.83
2023-09-09T09:16:57.452Z,17.45
2023-09-09T09:19:28.679Z,17.00
2023-09-09T09:21:58.296Z,14.88
2023-09-09T09:24:28.390Z,16.42
2023-09-09T09:26:56.738Z,16.58
2023-09-09T09:29:25.056Z,14.05
2023-09-09T09:31:53.964Z,14.93
2023-09-09T09:34:23.382Z,14.48
2023-09-09T09:36:51.254Z,13.25
2023-09-09T09:39:19.182Z,13.50
2023-09-09T09:41:49.807Z,13.23
2023-09-09T09:44:21.805Z,14.20
2023-09-09T09:47:04.395Z,14.02
2023-09-09T09:49:39.628Z,13.45
2023-09-09T09:52:08.108Z,12.05
2023-09-09T09:54:37.761Z,11.60
2023-09-09T09:57:08.302Z,11.00
2023-09-09T09:59:37.892Z,11.55
2023-09-09T10:02:05.949Z,12.45
2023-09-09T10:04:40.572Z,12.10
2023-09-09T10:07:13.118Z,11.65
2023-09-09T10:09:46.961Z,11.60
2023-09-09T10:12:33.068Z,10.70
2023-09-09T10:15:10.903Z,11.02
2023-09-09T10:17:40.519Z,12.15
2023-09-09T10:20:10.668Z,10.68
2023-09-09T10:22:39.347Z,9.65
2023-09-09T10:25:11.788Z,9.80
2023-09-09T10:27:42.920Z,9.40
2023-09-09T10:30:11.914Z,9.55
2023-09-09T10:32:40.020Z,9.50
2023-09-09T10:35:09.439Z,10.10
2023-09-09T10:37:39.523Z,11.10
2023-09-09T10:40:08.960Z,10.27
2023-09-09T10:42:40.184Z,8.88
2023-09-09T10:45:26.123Z,9.25
2023-09-09T10:47:57.094Z,8.52
2023-09-09T10:50:25.234Z,8.07
2023-09-09T10:52:54.623Z,8.00
2023-09-09T10:55:30.545Z,8.23
2023-09-09T10:57:59.166Z,7.20
2023-09-09T11:00:42.498Z,7.22
2023-09-09T11:03:15.504Z,7.68
2023-09-09T11:06:03.629Z,8.35
2023-09-09T11:08:37.445Z,7.97
2023-09-09T11:11:08.824Z,8.75
2023-09-09T11:13:41.519Z,8.38
2023-09-09T11:16:34.437Z,7.07
2023-09-09T11:19:04.929Z,7.82
2023-09-09T11:21:35.479Z,7.18
2023-09-09T11:24:04.680Z,7.43
2023-09-09T11:26:32.798Z,7.15
2023-09-09T11:29:02.002Z,6.93
2023-09-09T11:31:31.980Z,8.00
2023-09-09T11:34:00.232Z,8.02
2023-09-09T11:36:28.912Z,7.32
2023-09-09T11:38:59.108Z,7.28
2023-09-09T11:41:28.608Z,7.32
2023-09-09T11:44:04.112Z,7.32
2023-09-09T11:46:41.771Z,7.68
2023-09-09T11:49:10.678Z,7.03
2023-09-09T11:51:38.650Z,7.90
2023-09-09T11:54:07.867Z,8.00
2023-09-09T11:56:35.669Z,7.22
2023-09-09T11:59:08.435Z,7.35
2023-09-09T12:01:43.690Z,7.90
2023-09-09T12:04:12.433Z,7.85
2023-09-09T12:06:41.777Z,7.55
2023-09-09T12:09:10.687Z,6.45
2023-09-09T12:11:40.854Z,6.82
2023-09-09T12:14:09.112Z,6.60
2023-09-09T12:16:37.540Z,6.38
2023-09-09T12:19:06.853Z,6.25
2023-09-09T12:21:44.876Z,6.53
2023-09-09T12:24:13.847Z,6.93
2023-09-09T12:26:41.749Z,6.22
2023-09-09T12:29:11.408Z,6.07
2023-09-09T12:31:54.006Z,6.18
2023-09-09T12:34:24.343Z,6.00
2023-09-09T12:36:53.107Z,6.28
2023-09-09T12:39:24.732Z,7.60
2023-09-09T12:42:00.060Z,6.35
2023-09-09T12:44:27.866Z,6.50
2023-09-09T12:46:56.294Z,5.45
2023-09-09T12:49:25.684Z,6.03
2023-09-09T12:51:53.485Z,6.15
2023-09-09T12:54:21.277Z,5.85
2023-09-09T12:56:49.138Z,5.07
2023-09-09T12:59:16.914Z,6.28
2023-09-09T13:01:44.730Z,5.80
2023-09-09T13:04:12.617Z,6.53
2023-09-09T13:06:41.875Z,5.28
2023-09-09T13:09:09.679Z,6.55
2023-09-09T13:11:37.566Z,5.63
2023-09-09T13:14:19.842Z,6.38
2023-09-09T13:16:53.027Z,4.88
2023-09-09T13:19:20.949Z,6.00
2023-09-09T13:21:50.326Z,6.97
2023-09-09T13:24:18.186Z,5.95
2023-09-09T13:26:45.951Z,5.53
2023-09-09T13:29:14.211Z,8.27
2023-09-09T13:31:43.194Z,5.97
2023-09-09T13:34:11.116Z,5.55
2023-09-09T13:36:39.041Z,5.57
2023-09-09T13:39:08.195Z,4.57
2023-09-09T13:41:36.089Z,4.82
2023-09-09T13:44:04.250Z,4.47
2023-09-09T13:46:32.075Z,4.50
2023-09-09T13:48:59.863Z,5.18
2023-09-09T13:51:30.690Z,4.57
2023-09-09T13:53:59.095Z,4.70
2023-09-09T13:56:27.246Z,5.35
2023-09-09T13:58:57.148Z,5.55
2023-09-09T14:01:25.478Z,5.95
2023-09-09T14:03:53.452Z,5.25
2023-09-09T14:06:22.915Z,5.28
2023-09-09T14:08:50.772Z,5.15
2023-09-09T14:11:18.591Z,4.70
2023-09-09T14:13:47.697Z,4.88
2023-09-09T14:16:15.475Z,5.88
2023-09-09T14:18:43.496Z,6.53
2023-09-09T14:21:11.670Z,5.00
2023-09-09T14:23:42.067Z,5.93
2023-09-09T14:26:09.922Z,4.55
2023-09-09T14:28:37.928Z,5.10
2023-09-09T14:31:07.355Z,5.47
2023-09-09T14:33:35.176Z,5.20
2023-09-09T14:36:03.403Z,5.03
2023-09-09T14:38:31.281Z,4.80
2023-09-09T14:40:59.101Z,4.85
2023-09-09T14:43:26.975Z,4.88
2023-09-09T14:45:54.894Z,4.47
2023-09-09T14:48:24.518Z,4.75
2023-09-09T14:50:54.461Z,4.50
2023-09-09T14:53:22.415Z,4.68
2023-09-09T14:55:50.883Z,5.35
2023-09-09T14:58:18.648Z,4.80
2023-09-09T15:00:46.552Z,5.78
2023-09-09T15:03:14.381Z,5.03
2023-09-09T15:05:44.200Z,5.93
2023-09-09T15:08:11.937Z,4.47
2023-09-09T15:10:39.694Z,5.03
2023-09-09T15:13:07.673Z,5.55
2023-09-09T15:15:38.741Z,4.95
2023-09-09T15:18:08.588Z,4.93
2023-09-09T15:20:36.974Z,5.00
2023-09-09T15:23:06.211Z,4.65
2023-09-09T15:25:34.018Z,4.75
2023-09-09T15:28:01.828Z,5.57
2023-09-09T15:30:29.614Z,5.43
2023-09-09T15:32:57.557Z,5.80
2023-09-09T15:35:29.727Z,5.45
2023-09-09T15:37:57.628Z,7.13
2023-09-09T15:40:26.789Z,5.30
2023-09-09T15:42:55.262Z,5.35
2023-09-09T15:45:23.058Z,6.00
2023-09-09T15:47:50.967Z,5.25
2023-09-09T15:50:19.083Z,5.45
2023-09-09T15:52:47.376Z,5.57
2023-09-09T15:55:15.341Z,8.23
2023-09-09T15:57:44.476Z,5.75
2023-09-09T16:00:12.703Z,4.40
2023-09-09T16:02:40.663Z,5.03
2023-09-09T16:05:08.586Z,4.30
2023-09-09T16:07:40.164Z,5.28
2023-09-09T16:10:09.343Z,4.50
2023-09-09T16:12:37.129Z,4.70
2023-09-09T16:15:07.465Z,5.28
2023-09-09T16:17:35.311Z,4.82
2023-09-09T16:20:03.148Z,7.35
2023-09-09T16:22:31.002Z,8.82
2023-09-09T16:24:58.795Z,6.30
2023-09-09T16:27:27.234Z,4.57
2023-09-09T16:29:55.173Z,4.55
2023-09-09T16:32:24.444Z,4.68
2023-09-09T16:34:52.445Z,4.90
2023-09-09T16:37:20.268Z,5.47
2023-09-09T16:39:48.001Z,9.25
2023-09-09T16:42:15.801Z,8.35
2023-09-09T16:44:43.583Z,6.35
2023-09-09T16:47:11.360Z,5.30
2023-09-09T16:49:40.468Z,5.10
2023-09-09T16:52:12.010Z,5.45
2023-09-09T16:54:39.880Z,5.13
2023-09-09T16:57:08.742Z,4.90
2023-09-09T16:59:37.525Z,4.90
2023-09-09T17:02:06.274Z,4.32
2023-09-09T17:04:34.661Z,4.20
2023-09-09T17:07:04.191Z,4.32
2023-09-09T17:09:32.752Z,5.72
2023-09-09T17:12:00.764Z,5.80
2023-09-09T17:14:28.975Z,5.65
2023-09-09T17:16:56.786Z,4.95
2023-09-09T17:19:24.657Z,5.35
2023-09-09T17:21:52.461Z,4.70
2023-09-09T17:24:21.583Z,4.82
2023-09-09T17:26:49.384Z,5.65
2023-09-09T17:29:19.564Z,7.03
2023-09-09T17:31:47.424Z,5.50
2023-09-09T17:34:15.257Z,5.93
2023-09-09T17:36:43.369Z,5.28
2023-09-09T17:39:16.518Z,5.75
2023-09-09T17:41:46.091Z,6.30
2023-09-09T17:44:14.015Z,5.13
2023-09-09T17:46:41.879Z,5.00
2023-09-09T17:49:09.776Z,4.95
2023-09-09T17:51:37.558Z,4.60
2023-09-09T17:54:05.894Z,4.60
2023-09-09T17:56:35.298Z,4.60
2023-09-09T17:59:04.571Z,3.50
2023-09-09T18:01:32.387Z,4.45
2023-09-09T18:04:01.643Z,4.07
2023-09-09T18:06:29.559Z,5.18
2023-09-09T18:08:57.401Z,6.60
2023-09-09T18:11:25.594Z,4.65
2023-09-09T18:13:55.110Z,6.18
2023-09-09T18:16:31.618Z,6.30
2023-09-09T18:19:00.083Z,6.55
2023-09-09T18:21:28.151Z,6.65
2023-09-09T18:23:56.832Z,6.40
2023-09-09T18:26:26.640Z,6.15
2023-09-09T18:28:54.458Z,5.28
2023-09-09T18:31:22.398Z,4.95
2023-09-09T18:33:51.653Z,6.18
2023-09-09T18:36:19.459Z,6.57
2023-09-09T18:38:47.298Z,6.63
2023-09-09T18:41:15.169Z,8.35
2023-09-09T18:43:42.973Z,8.95
2023-09-09T18:46:10.899Z,9.10
2023-09-09T18:48:39.027Z,8.05
2023-09-09T18:51:08.370Z,7.05
2023-09-09T18:53:36.189Z,7.30
2023-09-09T18:56:04.093Z,6.43
2023-09-09T18:58:32.127Z,6.70
2023-09-09T19:01:00.021Z,8.30
2023-09-09T19:03:27.942Z,8.65
2023-09-09T19:05:56.633Z,8.80
2023-09-09T19:08:25.853Z,9.38
2023-09-09T19:10:53.675Z,8.20
2023-09-09T19:13:21.499Z,6.88
2023-09-09T19:15:50.623Z,6.88
2023-09-09T19:18:18.693Z,7.57
2023-09-09T19:20:46.540Z,8.10
2023-09-09T19:23:14.383Z,8.52
2023-09-09T19:25:43.519Z,8.40
2023-09-09T19:28:12.471Z,9.02
2023-09-09T19:30:40.728Z,7.40
2023-09-09T19:33:09.236Z,7.15
2023-09-09T19:35:37.192Z,7.95
2023-09-09T19:38:11.060Z,6.70
2023-09-09T19:40:39.446Z,10.55
2023-09-09T19:43:08.647Z,9.52
2023-09-09T19:45:36.499Z,12.70
2023-09-09T19:48:04.604Z,14.48
2023-09-09T19:50:32.386Z,14.55
2023-09-09T19:53:00.199Z,14.15
2023-09-09T19:55:28.461Z,11.60
2023-09-09T19:57:56.308Z,10.07
2023-09-09T20:00:25.447Z,9.38
2023-09-09T20:02:53.975Z,9.02
2023-09-09T20:05:21.982Z,11.98
2023-09-09T20:07:54.418Z,14.80
2023-09-09T20:10:24.923Z,15.10
2023-09-09T20:12:52.736Z,14.55
2023-09-09T20:15:20.474Z,13.73
2023-09-09T20:17:49.605Z,11.05
2023-09-09T20:20:18.409Z,9.75
2023-09-09T20:22:46.217Z,9.32
2023-09-09T20:25:15.531Z,8.70
2023-09-09T20:27:44.808Z,8.07
2023-09-09T20:30:14.558Z,8.68
2023-09-09T20:32:42.559Z,8.43
2023-09-09T20:35:31.252Z,8.15
2023-09-09T20:37:59.928Z,8.73
2023-09-09T20:40:29.461Z,9.18
2023-09-09T20:42:58.742Z,8.52
2023-09-09T20:45:28.013Z,9.30
2023-09-09T20:47:56.576Z,9.23
2023-09-09T20:50:28.274Z,10.80
2023-09-09T20:52:56.702Z,9.55
2023-09-09T20:55:24.730Z,10.63
2023-09-09T20:57:53.210Z,10.73
2023-09-09T21:00:21.729Z,9.82
2023-09-09T21:02:52.140Z,10.43
2023-09-09T21:05:21.531Z,11.70
2023-09-09T21:07:51.058Z,11.73
2023-09-09T21:10:19.419Z,11.20
2023-09-09T21:12:49.031Z,11.32
2023-09-09T21:15:18.099Z,11.40
2023-09-09T21:17:47.044Z,11.93
2023-09-09T21:20:15.533Z,11.18
2023-09-09T21:22:43.355Z,12.82
2023-09-09T21:25:12.649Z,12.10
2023-09-09T21:27:40.637Z,12.57
2023-09-09T21:30:11.424Z,13.20
2023-09-09T21:32:39.310Z,11.95
2023-09-09T21:35:07.624Z,12.45
2023-09-09T21:37:35.478Z,11.75
2023-09-09T21:40:03.926Z,12.18
2023-09-09T21:42:33.059Z,11.15
2023-09-09T21:45:00.848Z,12.68
2023-09-09T21:47:28.672Z,12.75
2023-09-09T21:49:56.564Z,13.27
2023-09-09T21:52:25.937Z,11.70
2023-09-09T21:54:53.809Z,12.40
2023-09-09T21:57:21.592Z,12.60
2023-09-09T21:59:50.992Z,13.40
2023-09-09T22:02:18.793Z,14.98
2023-09-09T22:04:46.565Z,13.45
2023-09-09T22:07:15.385Z,15.55
2023-09-09T22:09:43.432Z,15.45
2023-09-09T22:12:11.392Z,14.55
2023-09-09T22:14:39.178Z,15.48
2023-09-09T22:17:08.849Z,14.23
2023-09-09T22:19:37.569Z,13.77
2023-09-09T22:22:05.763Z,14.95
2023-09-09T22:24:33.598Z,13.48
2023-09-09T22:27:01.412Z,14.52
2023-09-09T22:29:29.179Z,14.93
2023-09-09T22:31:58.421Z,15.52
2023-09-09T22:34:30.187Z,13.90
2023-09-09T22:36:58.440Z,14.65
2023-09-09T22:39:26.213Z,14.10
2023-09-09T22:41:53.963Z,13.35
2023-09-09T22:44:21.909Z,14.73
2023-09-09T22:46:49.692Z,12.73
2023-09-09T22:49:17.470Z,12.98
2023-09-09T22:51:46.614Z,12.57
2023-09-09T22:54:14.475Z,13.68
2023-09-09T22:56:42.900Z,12.95
2023-09-09T22:59:13.568Z,13.82
2023-09-09T23:01:42.640Z,12.52
2023-09-09T23:04:10.462Z,11.98
2023-09-09T23:06:38.278Z,12.23
2023-09-09T23:09:07.560Z,12.45
2023-09-09T23:11:35.410Z,11.43
2023-09-09T23:14:03.407Z,12.23
2023-09-09T23:16:31.308Z,12.90
2023-09-09T23:18:59.194Z,11.48
2023-09-09T23:21:26.999Z,10.48
2023-09-09T23:23:54.762Z,10.93
2023-09-09T23:26:25.096Z,10.93
2023-09-09T23:28:52.885Z,11.15
2023-09-09T23:31:20.721Z,13.27
2023-09-09T23:33:48.578Z,11.40
2023-09-09T23:36:16.397Z,14.30
2023-09-09T23:38:44.300Z,11.70
2023-09-09T23:41:12.248Z,11.60
2023-09-09T23:43:42.096Z,12.85
2023-09-09T23:46:09.997Z,13.23
2023-09-09T23:48:38.151Z,13.98
2023-09-09T23:51:06.219Z,13.80
2023-09-09T23:53:34.035Z,12.82
2023-09-09T23:56:02.814Z,12.50
2023-09-09T23:58:31.758Z,11.80
